Time;durP1;ratioP1;P1;durP2;ratioP2;P2;SDS_P1;SDS_P2;PMS_P1;PMS_P2;Temp;Humidity;BMP_temperature;BMP_pressure;BME280_temperature;BME280_humidity;BME280_pressure;Samples;Min_cycle;Max_cycle;Signal;HPM_P1;HPM_P2
2023/01/04 00:01:13;;;;;;;13.10;10.20;;;;;;;7.86;64.00;94785.31;5031141;28;20503;-74
2023/01/04 00:03:39;;;;;;;14.45;10.68;;;;;;;7.66;64.70;94783.50;5029965;28;20694;-74
2023/01/04 00:06:06;;;;;;;15.23;11.18;;;;;;;7.46;65.13;94772.97;5029278;28;20124;-75
2023/01/04 00:08:32;;;;;;;16.70;11.05;;;;;;;7.64;64.69;94786.41;5027206;28;20048;-75
2023/01/04 00:11:06;;;;;;;11.68;10.43;;;;;;;7.45;65.05;94771.38;5025988;28;20029;-75
2023/01/04 00:13:32;;;;;;;13.80;9.82;;;;;;;7.53;64.96;94795.44;5028833;28;20021;-75
2023/01/04 00:15:58;;;;;;;14.25;10.05;;;;;;;7.66;64.52;94799.38;5029897;28;20032;-74
2023/01/04 00:18:23;;;;;;;12.85;10.00;;;;;;;7.71;64.18;94802.81;5029541;28;20274;-75
2023/01/04 00:20:49;;;;;;;12.40;9.68;;;;;;;7.66;63.94;94805.47;5030928;28;20581;-75
2023/01/04 00:23:14;;;;;;;11.40;9.75;;;;;;;7.58;64.04;94787.47;5028683;28;20432;-75
2023/01/04 00:25:40;;;;;;;14.35;10.18;;;;;;;7.58;63.89;94798.06;5029370;28;20645;-74
2023/01/04 00:28:05;;;;;;;13.88;9.57;;;;;;;7.56;64.15;94788.81;5031300;28;20027;-76
2023/01/04 00:30:30;;;;;;;14.55;10.70;;;;;;;7.46;64.31;94778.28;5031590;28;20033;-75
2023/01/04 00:32:57;;;;;;;11.15;9.57;;;;;;;7.51;64.56;94797.59;5028306;28;20051;-75
2023/01/04 00:35:23;;;;;;;17.50;10.60;;;;;;;7.57;63.90;94796.50;5029563;28;20041;-75
2023/01/04 00:37:48;;;;;;;15.45;11.68;;;;;;;7.38;64.62;94790.22;5031292;28;20539;-74
2023/01/04 00:40:14;;;;;;;14.00;9.32;;;;;;;7.54;64.20;94810.25;5037312;28;20028;-74
2023/01/04 00:42:39;;;;;;;13.25;10.95;;;;;;;7.65;63.78;94808.38;5029632;28;20125;-74
2023/01/04 00:45:05;;;;;;;14.40;10.85;;;;;;;7.41;63.80;94779.09;5029357;28;20034;-74
2023/01/04 00:47:31;;;;;;;18.35;10.35;;;;;;;7.48;64.40;94811.38;5029344;28;20520;-75
2023/01/04 00:49:56;;;;;;;16.77;10.43;;;;;;;7.45;64.32;94806.59;5034853;28;20044;-75
2023/01/04 00:52:21;;;;;;;15.27;10.45;;;;;;;7.38;64.30;94798.16;5029783;28;20469;-76
2023/01/04 00:54:47;;;;;;;19.70;10.98;;;;;;;7.26;64.53;94792.34;5027010;28;20049;-74
2023/01/04 00:57:12;;;;;;;14.60;11.13;;;;;;;7.39;64.00;94807.66;5029901;28;20128;-75
2023/01/04 00:59:37;;;;;;;18.05;12.43;;;;;;;7.31;64.01;94779.09;5028264;28;20328;-74
2023/01/04 01:02:03;;;;;;;15.00;10.55;;;;;;;7.54;63.74;94804.19;5025145;28;20030;-75
2023/01/04 01:04:28;;;;;;;16.65;10.82;;;;;;;7.36;64.44;94812.69;5026240;28;20033;-74
2023/01/04 01:06:54;;;;;;;12.68;10.40;;;;;;;7.36;64.37;94812.69;5023129;28;20060;-75
2023/01/04 01:09:21;;;;;;;15.38;10.07;;;;;;;7.41;64.22;94812.69;5027459;28;20148;-75
2023/01/04 01:11:47;;;;;;;16.42;10.55;;;;;;;7.37;64.16;94806.34;5032785;28;20577;-75
2023/01/04 01:14:19;;;;;;;14.68;10.60;;;;;;;7.51;63.54;94821.41;5028070;28;20048;-74
2023/01/04 01:16:45;;;;;;;13.02;10.13;;;;;;;7.32;64.32;94803.72;5024884;28;20056;-74
2023/01/04 01:19:10;;;;;;;13.23;10.30;;;;;;;7.51;63.98;94829.34;5026106;28;20028;-74
2023/01/04 01:21:36;;;;;;;16.30;10.93;;;;;;;7.47;63.95;94825.66;5032276;28;20075;-74
2023/01/04 01:24:02;;;;;;;16.27;10.77;;;;;;;7.47;63.37;94801.84;5026071;28;20455;-75
2023/01/04 01:26:27;;;;;;;14.57;12.00;;;;;;;7.48;63.23;94805.28;5025659;28;20167;-74
2023/01/04 01:28:53;;;;;;;11.75;9.73;;;;;;;7.73;63.07;94821.88;5024009;28;20064;-74
2023/01/04 01:31:24;;;;;;;15.38;11.25;;;;;;;7.70;63.06;94830.34;5028149;28;20087;-74
2023/01/04 01:33:51;;;;;;;17.13;10.98;;;;;;;7.54;63.45;94807.63;5022635;28;20057;-72
2023/01/04 01:36:18;;;;;;;15.27;11.40;;;;;;;7.56;63.49;94816.09;5024001;28;20665;-74
2023/01/04 01:38:44;;;;;;;15.40;10.60;;;;;;;7.53;63.34;94813.19;5021708;28;20748;-74
2023/01/04 01:41:21;;;;;;;14.50;11.45;;;;;;;7.41;64.58;94826.72;5023476;28;20037;-73
2023/01/04 01:43:52;;;;;;;24.83;12.07;;;;;;;7.34;64.59;94818.25;5023161;28;20091;-73
2023/01/04 01:46:42;;;;;;;15.68;11.73;;;;;;;7.56;64.17;94821.41;5031683;28;20108;-73
2023/01/04 01:49:32;;;;;;;15.48;11.18;;;;;;;7.57;63.64;94804.44;5025168;28;20595;-73
2023/01/04 01:52:01;;;;;;;15.98;10.68;;;;;;;7.54;63.86;94812.13;5026148;28;20044;-72
2023/01/04 01:54:33;;;;;;;13.80;10.05;;;;;;;7.43;64.05;94814.03;5022339;28;20434;-75
2023/01/04 01:57:01;;;;;;;16.02;12.10;;;;;;;7.47;64.05;94801.84;5024749;28;20030;-73
2023/01/04 01:59:28;;;;;;;15.18;11.27;;;;;;;7.68;63.35;94808.63;5023082;28;20032;-72
2023/01/04 02:01:54;;;;;;;18.58;12.00;;;;;;;7.59;62.73;94783.78;5023713;28;20041;-75
2023/01/04 02:04:19;;;;;;;16.73;10.57;;;;;;;7.65;62.96;94797.78;5024384;28;20026;-75
2023/01/04 02:06:48;;;;;;;15.07;10.80;;;;;;;7.62;63.09;94801.78;5024593;28;20120;-75
2023/01/04 02:09:15;;;;;;;14.73;10.65;;;;;;;7.42;63.79;94785.97;5023949;28;20196;-74
2023/01/04 02:11:41;;;;;;;14.30;11.23;;;;;;;7.36;64.13;94789.69;5023437;28;20037;-74
2023/01/04 02:14:26;;;;;;;16.55;11.18;;;;;;;7.36;64.10;94789.69;5023267;28;20030;-75
2023/01/04 02:17:09;;;;;;;13.88;10.95;;;;;;;7.60;63.25;94806.53;5022912;28;20060;-73
2023/01/04 02:20:00;;;;;;;15.15;10.63;;;;;;;7.56;63.16;94799.41;5023952;28;20021;-73
2023/01/04 02:22:41;;;;;;;13.45;10.43;;;;;;;7.56;63.30;94797.56;5025422;28;20495;-74
2023/01/04 02:25:25;;;;;;;13.07;10.52;;;;;;;7.61;63.18;94797.56;5027804;28;20013;-74
2023/01/04 02:28:14;;;;;;;14.55;11.15;;;;;;;7.67;63.10;94799.13;5023509;28;20045;-74
2023/01/04 02:30:43;;;;;;;16.95;12.52;;;;;;;7.55;63.20;94798.63;5032740;28;20049;-73
2023/01/04 02:33:23;;;;;;;15.38;11.02;;;;;;;7.62;63.15;94799.13;5025387;28;20044;-73
2023/01/04 02:36:13;;;;;;;15.35;10.85;;;;;;;7.73;62.69;94792.75;5028127;28;20384;-74
2023/01/04 02:38:44;;;;;;;18.58;10.77;;;;;;;7.80;61.98;94787.19;5023998;28;20098;-73
2023/01/04 02:41:25;;;;;;;15.70;12.82;;;;;;;7.89;61.89;94787.41;5020966;28;20052;-73
2023/01/04 02:47:14;;;;;;;14.98;10.93;;;;;;;8.15;60.55;94767.66;5024996;28;20739;-74
2023/01/04 02:52:24;;;;;;;14.50;10.70;;;;;;;8.14;60.14;94781.97;5023570;28;20150;-74
2023/01/04 02:54:54;;;;;;;16.15;11.50;;;;;;;8.19;59.98;94768.69;5025990;28;20539;-74
2023/01/04 02:57:34;;;;;;;14.93;11.50;;;;;;;8.35;59.44;94783.44;5025113;28;20033;-74
2023/01/04 03:00:14;;;;;;;13.32;10.18;;;;;;;8.25;59.11;94745.59;5026299;28;20127;-73
2023/01/04 03:08:36;;;;;;;16.15;11.50;;;;;;;8.24;60.28;94791.72;5024683;28;20995;-73
2023/01/04 03:12:30;;;;;;;16.15;12.68;;;;;;;8.08;60.83;94785.69;5026071;28;20038;-73
2023/01/04 03:14:06;;;;;;;17.38;12.93;;;;;;;7.92;61.37;94773.63;5025557;28;20041;-73
2023/01/04 03:16:35;;;;;;;18.67;12.73;;;;;;;7.60;62.74;94753.59;5021902;28;20101;-73
2023/01/04 03:19:08;;;;;;;17.20;13.48;;;;;;;7.28;62.88;94710.84;5025879;28;20056;-74
2023/01/04 03:21:36;;;;;;;17.85;13.07;;;;;;;7.69;63.08;94778.44;5027417;28;20064;-74
2023/01/04 03:35:48;;;;;;;19.23;14.18;;;;;;;7.38;65.01;94792.84;5025342;28;20813;-73
2023/01/04 03:50:40;;;;;;;24.02;15.63;;;;;;;7.04;66.83;94794.50;5028859;28;20044;-73
2023/01/04 03:53:07;;;;;;;19.70;14.43;;;;;;;6.93;67.51;94796.38;5027551;28;20115;-73
2023/01/04 03:55:35;;;;;;;24.25;15.57;;;;;;;6.76;67.46;94767.56;5030714;28;20108;-74
2023/01/04 03:58:01;;;;;;;22.40;16.33;;;;;;;6.99;67.54;94805.91;5036005;28;20451;-73
2023/01/04 04:00:27;;;;;;;21.60;14.27;;;;;;;6.92;67.40;94804.56;5027277;28;20035;-73
2023/01/04 04:02:52;;;;;;;22.33;15.05;;;;;;;6.80;67.89;94802.19;5026811;28;20029;-73
2023/01/04 04:10:53;;;;;;;19.25;14.35;;;;;;;6.97;67.09;94812.50;5028288;28;20040;-74
2023/01/04 04:13:18;;;;;;;19.92;13.70;;;;;;;6.69;67.90;94817.28;5029687;28;20414;-73
2023/01/04 04:15:44;;;;;;;23.48;15.00;;;;;;;6.36;69.10;94797.41;5028754;28;20061;-74
2023/01/04 04:18:10;;;;;;;30.88;15.85;;;;;;;6.29;69.63;94790.78;5034785;28;20171;-72
2023/01/04 04:20:35;;;;;;;18.92;14.38;;;;;;;6.23;70.59;94813.75;5031566;28;20082;-74
2023/01/04 04:23:01;;;;;;;24.00;14.90;;;;;;;6.35;70.33;94811.69;5027941;28;20522;-73
2023/01/04 04:25:26;;;;;;;20.77;15.13;;;;;;;6.32;70.41;94803.47;5028902;28;20017;-74
2023/01/04 04:27:52;;;;;;;21.80;14.32;;;;;;;6.52;69.90;94811.44;5030209;28;20530;-73
2023/01/04 04:30:17;;;;;;;23.40;14.43;;;;;;;6.62;68.97;94800.88;5030297;28;20057;-73
2023/01/04 04:32:43;;;;;;;21.38;14.55;;;;;;;6.58;68.68;94799.81;5027947;28;20576;-73
2023/01/04 04:35:08;;;;;;;19.58;14.48;;;;;;;6.65;68.28;94821.47;5028077;28;20157;-74
2023/01/04 04:37:34;;;;;;;23.63;14.77;;;;;;;6.69;68.39;94813.81;5027538;28;20343;-72
2023/01/04 04:40:00;;;;;;;24.50;15.10;;;;;;;6.61;68.50;94801.91;5029422;28;20118;-75
2023/01/04 04:42:26;;;;;;;26.30;16.55;;;;;;;6.74;67.77;94809.34;5028641;28;20025;-73
2023/01/04 04:44:51;;;;;;;21.63;15.00;;;;;;;6.74;68.04;94814.63;5027754;28;20048;-74
2023/01/04 04:47:16;;;;;;;21.33;16.05;;;;;;;6.66;68.32;94812.50;5027665;28;20410;-73
2023/01/04 04:49:42;;;;;;;21.98;14.82;;;;;;;6.39;69.34;94801.38;5027523;28;20132;-73
2023/01/04 04:52:07;;;;;;;23.55;14.93;;;;;;;6.50;69.50;94810.13;5029212;28;20771;-74
2023/01/04 04:54:33;;;;;;;26.65;15.80;;;;;;;6.56;69.25;94817.78;5026750;28;20033;-73
2023/01/04 04:56:58;;;;;;;20.77;15.73;;;;;;;6.34;69.80;94814.59;5026875;28;20784;-75
2023/01/04 04:59:23;;;;;;;27.63;17.80;;;;;;;6.44;70.00;94822.53;5027895;28;20048;-73
2023/01/04 05:01:49;;;;;;;21.75;15.95;;;;;;;6.13;70.45;94799.72;5029177;28;20042;-74
2023/01/04 05:04:18;;;;;;;25.08;16.88;;;;;;;5.85;71.25;94785.13;5027868;28;20126;-73
2023/01/04 05:06:48;;;;;;;22.67;15.88;;;;;;;6.13;70.84;94807.63;5028361;28;20034;-74
2023/01/04 05:09:14;;;;;;;22.63;16.30;;;;;;;6.26;70.90;94846.81;5027032;28;20071;-73
2023/01/04 05:14:24;;;;;;;18.77;14.93;;;;;;;6.10;70.96;94824.00;5026545;28;20531;-73
2023/01/04 05:16:50;;;;;;;20.85;15.68;;;;;;;6.22;70.69;94827.22;5026834;28;20041;-73
2023/01/04 05:19:15;;;;;;;25.13;15.82;;;;;;;6.41;70.06;94837.03;5026949;28;20052;-73
2023/01/04 05:21:41;;;;;;;24.33;15.82;;;;;;;6.26;70.15;94810.59;5028008;28;20037;-73
2023/01/04 05:24:09;;;;;;;21.77;13.57;;;;;;;6.30;70.33;94839.94;5026876;28;20235;-73
2023/01/04 05:26:34;;;;;;;23.08;16.70;;;;;;;6.26;70.32;94833.59;5029031;28;20029;-73
2023/01/04 05:29:00;;;;;;;20.90;15.43;;;;;;;6.13;70.47;94826.91;5026780;28;20041;-73
2023/01/04 05:31:25;;;;;;;19.08;14.57;;;;;;;6.04;70.69;94819.75;5027023;28;20028;-73
2023/01/04 05:33:51;;;;;;;21.63;15.60;;;;;;;6.18;70.39;94828.81;5026956;28;20048;-73
2023/01/04 05:36:16;;;;;;;23.15;16.25;;;;;;;6.06;71.17;94844.88;5029123;28;20033;-73
2023/01/04 05:38:42;;;;;;;23.42;14.82;;;;;;;5.93;71.56;94847.97;5028089;28;20470;-73
2023/01/04 05:42:23;;;;;;;21.17;13.32;;;;;;;5.75;71.30;94835.22;5028748;28;20029;-73
2023/01/04 05:43:52;;;;;;;19.83;13.90;;;;;;;5.75;72.03;94859.00;5025679;28;20061;-73
2023/01/04 05:46:18;;;;;;;20.02;14.05;;;;;;;5.85;71.08;94837.91;5028672;28;20052;-74
2023/01/04 05:48:43;;;;;;;18.25;12.18;;;;;;;5.93;70.57;94851.41;5032470;28;20033;-73
2023/01/04 05:51:08;;;;;;;19.77;13.43;;;;;;;5.73;70.54;94835.47;5026563;28;20499;-73
2023/01/04 05:53:34;;;;;;;16.05;12.73;;;;;;;5.58;70.54;94833.56;5027459;28;20033;-74
2023/01/04 05:55:59;;;;;;;17.88;11.38;;;;;;;5.69;70.04;94834.41;5027378;28;20041;-73
2023/01/04 05:58:24;;;;;;;16.55;11.93;;;;;;;5.74;70.28;94858.19;5025141;28;20083;-73
2023/01/04 06:00:50;;;;;;;14.32;10.20;;;;;;;5.67;69.94;94846.28;5028933;28;20477;-74
2023/01/04 06:03:15;;;;;;;15.35;11.13;;;;;;;5.89;69.02;94854.81;5023818;28;20595;-73
2023/01/04 06:05:40;;;;;;;15.60;10.60;;;;;;;5.89;68.62;94855.63;5026543;28;20636;-74
2023/01/04 06:08:06;;;;;;;13.55;10.23;;;;;;;5.69;68.32;94813.28;5026693;28;20385;-73
2023/01/04 06:10:32;;;;;;;14.75;10.73;;;;;;;6.02;67.51;94865.69;5024586;28;20029;-74
2023/01/04 06:12:57;;;;;;;15.48;11.00;;;;;;;5.77;68.14;94836.59;5025823;28;20051;-73
2023/01/04 06:15:23;;;;;;;14.27;10.75;;;;;;;6.04;67.99;94875.22;5025017;28;20084;-73
2023/01/04 06:17:48;;;;;;;17.10;9.48;;;;;;;6.03;67.58;94866.50;5026604;28;20037;-73
2023/01/04 06:20:13;;;;;;;15.85;10.98;;;;;;;6.03;67.38;94869.13;5026212;28;20758;-75
2023/01/04 06:22:40;;;;;;;11.98;8.88;;;;;;;6.18;66.81;94873.72;5025379;28;20031;-75
2023/01/04 06:25:07;;;;;;;14.35;9.45;;;;;;;6.13;66.12;94866.53;5027043;28;20044;-73
2023/01/04 06:27:32;;;;;;;12.85;9.52;;;;;;;6.08;66.04;94876.28;5025565;28;20096;-72
2023/01/04 06:29:57;;;;;;;11.95;9.30;;;;;;;5.97;66.86;94886.81;5027768;28;20528;-72
2023/01/04 06:32:23;;;;;;;10.73;8.50;;;;;;;5.91;66.99;94882.56;5026976;28;20044;-74
2023/01/04 06:34:48;;;;;;;12.27;8.55;;;;;;;6.08;66.31;94874.44;5026301;28;20065;-75
2023/01/04 06:37:15;;;;;;;13.38;9.70;;;;;;;6.21;65.29;94883.78;5025158;28;20049;-74
2023/01/04 06:39:40;;;;;;;13.20;9.25;;;;;;;6.27;65.26;94893.28;5025795;28;21060;-75
2023/01/04 06:42:43;;;;;;;13.18;9.15;;;;;;;6.09;65.42;94876.03;5026558;28;20405;-74
2023/01/04 06:44:51;;;;;;;9.80;8.13;;;;;;;6.22;65.89;94906.47;5024491;28;20036;-75
2023/01/04 06:47:16;;;;;;;15.32;9.95;;;;;;;6.26;65.17;94897.00;5021919;28;20029;-74
2023/01/04 06:49:42;;;;;;;13.90;9.82;;;;;;;6.43;64.96;94898.38;5027720;28;20041;-75
2023/01/04 06:52:07;;;;;;;13.27;8.90;;;;;;;6.54;64.04;94901.84;5029695;28;20143;-74
2023/01/04 06:54:32;;;;;;;12.55;8.15;;;;;;;6.50;64.10;94892.84;5026130;28;20033;-74
2023/01/04 06:56:58;;;;;;;13.40;9.52;;;;;;;6.44;63.81;94893.88;5024495;28;20043;-74
2023/01/04 06:59:23;;;;;;;13.32;9.57;;;;;;;6.39;64.41;94885.94;5028703;28;20622;-74
2023/01/04 07:01:49;;;;;;;12.90;9.80;;;;;;;6.38;64.60;94895.72;5025524;28;20668;-72
2023/01/04 07:04:14;;;;;;;12.38;8.98;;;;;;;6.29;64.95;94878.78;5024620;28;20020;-73
2023/01/04 07:06:39;;;;;;;13.38;10.48;;;;;;;6.28;65.10;94884.31;5021846;28;20282;-73
2023/01/04 07:09:05;;;;;;;13.05;9.40;;;;;;;6.22;65.33;94885.34;5020999;28;20045;-72
2023/01/04 07:11:30;;;;;;;16.48;10.23;;;;;;;5.93;65.84;94840.84;5021707;28;20353;-75
2023/01/04 07:13:56;;;;;;;16.48;10.95;;;;;;;6.22;66.34;94902.00;5024576;28;20689;-74
2023/01/04 07:16:21;;;;;;;16.25;11.55;;;;;;;6.31;65.96;94899.66;5022509;28;20017;-75
2023/01/04 07:18:46;;;;;;;12.82;9.45;;;;;;;6.45;64.73;94911.34;5024618;28;20048;-74
2023/01/04 07:21:12;;;;;;;13.63;9.35;;;;;;;6.47;64.34;94892.56;5028607;28;20029;-75
2023/01/04 07:23:37;;;;;;;16.10;10.63;;;;;;;6.41;64.32;94916.31;5031281;28;20036;-73
2023/01/04 07:26:03;;;;;;;15.20;10.30;;;;;;;6.36;64.12;94903.09;5026260;28;20547;-74
2023/01/04 07:31:12;;;;;;;13.88;9.35;;;;;;;6.40;65.06;94904.19;5029206;28;20047;-74
2023/01/04 07:33:37;;;;;;;11.85;9.88;;;;;;;6.30;65.80;94911.28;5023249;28;20052;-75
2023/01/04 07:36:04;;;;;;;16.60;11.70;;;;;;;6.30;65.66;94912.06;5026830;28;20196;-74
2023/01/04 07:38:30;;;;;;;16.73;11.98;;;;;;;6.19;66.13;94891.16;5025417;28;20718;-74
2023/01/04 07:40:55;;;;;;;15.05;11.57;;;;;;;6.26;66.89;94903.06;5030781;28;20064;-73
2023/01/04 07:43:21;;;;;;;13.63;10.75;;;;;;;6.34;66.23;94920.28;5029655;28;20020;-73
2023/01/04 07:45:46;;;;;;;16.08;10.48;;;;;;;6.29;66.21;94907.03;5029094;28;20470;-74
2023/01/04 07:48:11;;;;;;;17.17;11.77;;;;;;;6.18;66.21;94892.19;5027734;28;20091;-74
2023/01/04 07:50:37;;;;;;;15.57;11.27;;;;;;;6.24;66.73;94905.19;5026037;28;20128;-73
2023/01/04 07:53:02;;;;;;;19.55;11.98;;;;;;;5.96;67.34;94890.53;5034041;28;20476;-75
2023/01/04 07:55:28;;;;;;;16.30;12.20;;;;;;;5.76;67.80;94866.66;5021143;28;20025;-73
2023/01/04 07:57:53;;;;;;;20.98;12.43;;;;;;;6.10;67.24;94896.13;5026253;28;20120;-74
2023/01/04 08:00:19;;;;;;;16.58;12.82;;;;;;;6.19;67.46;94912.28;5027227;28;20116;-74
2023/01/04 08:02:44;;;;;;;18.20;12.65;;;;;;;5.98;68.22;94898.97;5027531;28;20871;-73
2023/01/04 08:05:09;;;;;;;17.85;12.82;;;;;;;6.12;67.85;94911.69;5025905;28;20057;-74
2023/01/04 08:07:35;;;;;;;16.73;11.10;;;;;;;6.34;66.58;94922.91;5030137;28;20093;-75
2023/01/04 08:10:00;;;;;;;17.02;11.60;;;;;;;6.27;66.67;94925.00;5026464;28;20067;-74
2023/01/04 08:12:26;;;;;;;17.83;11.10;;;;;;;6.43;66.57;94934.56;5026151;28;20619;-74
2023/01/04 08:14:51;;;;;;;15.82;11.13;;;;;;;6.46;65.51;94927.97;5022961;28;20103;-74
2023/01/04 08:17:17;;;;;;;18.17;11.60;;;;;;;6.28;65.94;94922.09;5023081;28;20493;-74
2023/01/04 08:19:42;;;;;;;18.13;11.55;;;;;;;6.37;66.59;94948.81;5025056;28;20041;-75
2023/01/04 08:22:07;;;;;;;18.52;11.10;;;;;;;6.39;66.04;94934.31;5024103;28;20031;-74
2023/01/04 08:24:33;;;;;;;16.88;12.55;;;;;;;6.34;66.77;94915.00;5024242;28;20041;-75
2023/01/04 08:26:58;;;;;;;19.45;11.85;;;;;;;6.50;65.88;94927.19;5024046;28;20159;-73
2023/01/04 08:29:24;;;;;;;17.23;11.13;;;;;;;6.52;65.21;94927.72;5023576;28;20122;-73
2023/01/04 08:31:49;;;;;;;18.90;12.32;;;;;;;6.39;65.75;94921.09;5023377;28;20100;-74
2023/01/04 08:34:14;;;;;;;16.80;11.07;;;;;;;6.22;66.95;94932.91;5025932;28;20130;-73
2023/01/04 08:36:48;;;;;;;19.98;12.57;;;;;;;6.31;66.86;94932.13;5023490;28;20416;-74
2023/01/04 08:39:14;;;;;;;17.73;12.45;;;;;;;6.28;67.40;94931.88;5021482;28;20037;-75
2023/01/04 08:41:52;;;;;;;19.45;12.55;;;;;;;6.23;67.23;94916.78;5029559;28;20561;-73
2023/01/04 08:44:22;;;;;;;20.15;12.07;;;;;;;6.44;66.96;94928.22;5023367;28;20985;-74
2023/01/04 08:46:48;;;;;;;21.45;13.45;;;;;;;6.74;66.02;94932.81;5022955;28;20072;-75
2023/01/04 08:49:14;;;;;;;27.48;14.40;;;;;;;6.73;66.05;94928.56;5018315;28;20576;-74
2023/01/04 08:51:40;;;;;;;20.95;13.32;;;;;;;6.75;65.50;94929.88;5021812;28;20170;-74
2023/01/04 08:54:05;;;;;;;20.88;14.02;;;;;;;6.74;65.78;94936.25;5023046;28;20441;-75
2023/01/04 08:56:30;;;;;;;21.10;13.95;;;;;;;6.49;66.37;94925.59;5030135;28;20577;-74
2023/01/04 08:58:56;;;;;;;19.13;13.23;;;;;;;6.45;66.99;94942.25;5023814;28;20048;-74
2023/01/04 09:01:21;;;;;;;20.40;14.10;;;;;;;6.51;66.56;94946.47;5025186;28;20567;-73
2023/01/04 09:03:47;;;;;;;26.23;13.82;;;;;;;6.39;67.01;94946.72;5025889;28;20041;-73
2023/01/04 09:06:14;;;;;;;27.58;15.13;;;;;;;6.15;68.17;94942.88;5026017;28;20037;-74
2023/01/04 09:08:41;;;;;;;21.60;13.80;;;;;;;6.17;67.68;94927.59;5029488;28;20346;-74
2023/01/04 09:11:16;;;;;;;20.90;14.05;;;;;;;6.35;67.54;94932.44;5025055;28;20029;-73
2023/01/04 09:13:41;;;;;;;21.38;14.68;;;;;;;6.53;67.01;94939.88;5030151;28;20033;-74
2023/01/04 09:16:09;;;;;;;20.58;13.73;;;;;;;6.62;65.53;94922.47;5023963;28;20025;-74
2023/01/04 09:18:35;;;;;;;20.92;13.23;;;;;;;6.73;65.17;94939.94;5023408;28;20525;-74
2023/01/04 09:21:06;;;;;;;19.52;12.85;;;;;;;6.64;65.61;94933.59;5021951;28;20544;-73
2023/01/04 09:23:32;;;;;;;19.70;13.38;;;;;;;6.56;65.11;94907.63;5019821;28;20919;-75
2023/01/04 09:25:58;;;;;;;24.73;13.88;;;;;;;6.73;65.12;94929.38;5019340;28;20487;-75
2023/01/04 09:28:24;;;;;;;23.65;14.23;;;;;;;6.65;64.96;94932.50;5023606;28;20083;-74
2023/01/04 09:30:49;;;;;;;22.17;14.82;;;;;;;6.45;66.23;94929.84;5023179;28;20532;-74
2023/01/04 09:33:15;;;;;;;20.08;12.73;;;;;;;6.37;66.54;94930.31;5022407;28;20072;-73
2023/01/04 09:35:40;;;;;;;19.02;14.02;;;;;;;6.27;66.31;94904.66;5023104;28;20095;-74
2023/01/04 09:38:05;;;;;;;19.45;13.93;;;;;;;6.16;66.78;94912.81;5024218;28;20078;-73
2023/01/04 09:40:45;;;;;;;19.30;12.90;;;;;;;6.09;66.74;94902.44;5022021;28;20552;-74
2023/01/04 09:43:17;;;;;;;20.13;13.50;;;;;;;6.16;67.23;94912.81;5019974;28;20587;-74
2023/01/04 09:45:44;;;;;;;18.67;13.45;;;;;;;6.38;66.27;94927.41;5021136;28;20574;-74
2023/01/04 09:48:15;;;;;;;19.08;11.85;;;;;;;6.37;66.21;94931.09;5020069;28;20044;-74
2023/01/04 09:50:52;;;;;;;18.35;12.63;;;;;;;6.36;65.97;94928.75;5019904;28;20037;-74
2023/01/04 09:53:27;;;;;;;18.13;12.30;;;;;;;6.33;66.24;94918.69;5022052;28;20872;-74
2023/01/04 09:55:57;;;;;;;16.75;11.73;;;;;;;6.37;65.71;94909.97;5021167;28;20872;-74
2023/01/04 09:58:31;;;;;;;22.10;12.95;;;;;;;6.27;66.79;94917.88;5020560;28;20028;-75
2023/01/04 10:01:39;;;;;;;18.35;11.63;;;;;;;6.35;65.90;94911.28;5021390;28;20321;-74
2023/01/04 10:04:25;;;;;;;20.60;11.88;;;;;;;6.24;65.82;94905.19;5019289;28;20227;-74
2023/01/04 10:06:52;;;;;;;17.73;11.25;;;;;;;6.18;66.03;94902.75;5022091;28;20133;-74
2023/01/04 10:09:18;;;;;;;18.38;12.38;;;;;;;6.30;66.11;94916.56;5020809;28;20048;-74
2023/01/04 10:11:55;;;;;;;17.30;11.65;;;;;;;6.43;65.90;94916.06;5022099;28;20553;-73
2023/01/04 10:14:27;;;;;;;18.65;13.32;;;;;;;6.69;65.32;94919.56;5029157;28;20107;-74
2023/01/04 10:16:58;;;;;;;19.33;13.32;;;;;;;6.46;65.47;94910.25;5022334;28;20568;-72
2023/01/04 10:19:54;;;;;;;18.88;12.48;;;;;;;6.50;65.08;94924.56;5029135;28;20037;-77
2023/01/04 10:22:25;;;;;;;16.95;12.30;;;;;;;6.61;65.47;94922.72;5029620;28;20584;-75
2023/01/04 10:24:53;;;;;;;16.70;11.63;;;;;;;6.71;64.84;94920.09;5022722;28;20095;-76
2023/01/04 10:27:30;;;;;;;18.38;12.30;;;;;;;6.68;64.36;94910.84;5026703;28;20847;-74
2023/01/04 10:29:58;;;;;;;16.25;11.77;;;;;;;6.71;64.07;94912.97;5023693;28;20052;-75
2023/01/04 10:32:43;;;;;;;16.35;12.13;;;;;;;6.76;63.85;94920.91;5021670;28;20087;-76
2023/01/04 10:35:26;;;;;;;17.83;12.35;;;;;;;6.71;63.19;94894.44;5022157;28;20041;-75
2023/01/04 10:37:57;;;;;;;15.13;11.82;;;;;;;6.83;62.70;94902.16;5020443;28;22195;-74
2023/01/04 10:40:25;;;;;;;16.17;11.27;;;;;;;6.84;62.84;94915.13;5015186;28;20443;-72
2023/01/04 10:43:13;;;;;;;15.00;10.77;;;;;;;6.73;63.48;94876.50;5017577;28;20029;-73
2023/01/04 10:45:42;;;;;;;16.42;10.77;;;;;;;7.00;61.85;94912.47;5018538;28;20025;-72
2023/01/04 10:48:37;;;;;;;16.55;11.43;;;;;;;6.92;62.56;94919.06;5018826;28;20037;-73
2023/01/04 10:51:03;;;;;;;14.70;10.53;;;;;;;6.77;62.75;94908.47;5021249;28;20517;-74
2023/01/04 10:53:36;;;;;;;18.20;13.27;;;;;;;6.70;62.82;94887.56;5022025;28;20286;-74
2023/01/04 10:56:17;;;;;;;18.58;12.40;;;;;;;7.06;62.32;94895.53;5030311;28;20599;-74
2023/01/04 10:59:08;;;;;;;26.65;13.93;;;;;;;7.19;62.28;94905.63;5022040;28;20500;-74
2023/01/04 11:01:40;;;;;;;20.48;12.68;;;;;;;7.27;61.85;94889.19;5020341;28;20500;-73
2023/01/04 11:04:31;;;;;;;18.63;13.38;;;;;;;7.41;61.04;94898.19;5031113;28;20112;-73
2023/01/04 11:07:20;;;;;;;17.00;11.35;;;;;;;7.52;60.86;94898.97;5028980;28;20033;-73
2023/01/04 11:09:54;;;;;;;17.67;12.02;;;;;;;7.25;61.24;94893.94;5024543;28;20656;-74
2023/01/04 11:12:21;;;;;;;17.48;11.63;;;;;;;7.14;62.25;94900.31;5018934;28;20148;-73
2023/01/04 11:14:48;;;;;;;20.60;13.82;;;;;;;7.04;62.83;94885.25;5023447;28;20049;-74
2023/01/04 11:17:14;;;;;;;21.88;15.20;;;;;;;7.17;62.14;94876.78;5028051;28;20037;-74
2023/01/04 11:19:41;;;;;;;22.63;14.75;;;;;;;7.41;61.24;94892.88;5033498;28;20575;-73
2023/01/04 11:22:20;;;;;;;18.65;14.02;;;;;;;7.34;61.37;94879.13;5028837;28;20028;-72
2023/01/04 11:24:50;;;;;;;25.02;15.75;;;;;;;7.26;62.15;94890.25;5025701;28;20083;-73
2023/01/04 11:27:23;;;;;;;31.83;17.65;;;;;;;7.33;62.53;94879.41;5032262;28;20041;-73
2023/01/04 11:29:56;;;;;;;24.33;14.57;;;;;;;7.42;62.21;94859.28;5023880;28;20124;-74
2023/01/04 11:32:45;;;;;;;17.52;10.82;;;;;;;7.48;61.46;94874.09;5025966;28;20081;-73
2023/01/04 11:35:10;;;;;;;17.63;11.88;;;;;;;7.53;61.39;94861.63;5025344;28;20071;-73
2023/01/04 11:37:39;;;;;;;18.92;13.18;;;;;;;7.65;60.77;94864.78;5023175;28;20408;-75
2023/01/04 11:40:12;;;;;;;18.95;13.43;;;;;;;7.53;60.87;94858.97;5028472;28;21265;-75
2023/01/04 11:42:38;;;;;;;17.63;13.43;;;;;;;7.69;60.44;94857.88;5031582;28;20242;-74
2023/01/04 11:45:04;;;;;;;15.00;12.75;;;;;;;7.68;60.62;94853.63;5024247;28;20049;-75
2023/01/04 11:47:29;;;;;;;19.42;11.93;;;;;;;7.53;59.85;94840.44;5024761;28;20829;-75
2023/01/04 11:49:55;;;;;;;20.17;11.57;;;;;;;7.60;60.12;94856.84;5029487;28;20080;-75
2023/01/04 11:52:26;;;;;;;20.05;14.07;;;;;;;7.70;59.82;94854.19;5028759;28;20025;-74
2023/01/04 11:54:51;;;;;;;23.45;13.30;;;;;;;7.64;59.45;94823.47;5030341;28;20045;-74
2023/01/04 11:57:18;;;;;;;24.13;13.32;;;;;;;7.53;59.54;94832.50;5031426;28;20064;-75
2023/01/04 11:59:43;;;;;;;18.10;11.20;;;;;;;7.57;59.74;94827.47;5022556;28;20029;-76
2023/01/04 12:02:25;;;;;;;13.18;10.25;;;;;;;7.65;59.35;94845.44;5026869;28;20032;-74
2023/01/04 12:04:52;;;;;;;17.42;11.55;;;;;;;7.34;59.21;94801.59;5023675;28;20068;-74
2023/01/04 12:07:24;;;;;;;14.73;9.85;;;;;;;7.58;59.28;94843.06;5029759;28;20030;-74
2023/01/04 12:09:49;;;;;;;18.17;13.98;;;;;;;7.48;59.75;94832.53;5026279;28;20614;-74
2023/01/04 12:12:14;;;;;;;18.30;13.65;;;;;;;7.60;59.51;94842.81;5022795;28;20418;-75
2023/01/04 12:14:47;;;;;;;15.63;13.02;;;;;;;7.56;59.33;94823.25;5023725;28;20025;-75
2023/01/04 12:17:18;;;;;;;15.10;11.35;;;;;;;7.71;59.26;94842.53;5031723;28;20468;-75
2023/01/04 12:19:45;;;;;;;20.58;15.02;;;;;;;7.57;59.73;94841.50;5021485;28;20282;-74
2023/01/04 12:22:36;;;;;;;38.20;28.40;;;;;;;7.65;59.64;94848.91;5025525;28;20020;-74